Country
Station

 

Weather  for  Hunter U. S. Army Airfield  -  United States    United States

  
20 °C (68 °F)
    
 
 

Current METAR for Hunter U. S. Army Airfield is :

KSVN 211756Z AUTO 00000KT 10SM CLR 20/05 A3021 RMK AO2 SLP233 T01970046 10199 20059 57025 $

 

This is a report for Hunter U. S. Army Airfield - United States.
 
The report was made 9 minutes ago, at 17:56 UTC .
The wind was calm.
 
The temperature was 20 °C (68 °F), with a dew-point at 5 °C (41 °F).
The atmospheric pressure was 1023 hPa (30.21 inHg).
The relative humidity was 37.3%.
 
The sky was clear.
 
The overall visibility was 16.1 kilometers (10.0 miles).
 

 
 
 
 

Country :   A   B   C   D   E   F   G   H   I   J   K   L   M   N   O   P   Q   R   S   T   U   V   W   Y   Z

 

Site Info  |  Disclaimer  |  Credits  |  Privacy
Contact us  |  Add to favorites
© 2013-2018 METARs - All rights reserved